Time;durP1;ratioP1;P1;durP2;ratioP2;P2;SDS_P1;SDS_P2;PMS_P1;PMS_P2;Temp;Humidity;BMP_temperature;BMP_pressure;BME280_temperature;BME280_humidity;BME280_pressure;Samples;Min_cycle;Max_cycle;Signal;HPM_P1;HPM_P2
2021/01/15 00:01:35;;;;;;;11.50;6.27;;;4.90;64.30;;;;;;5010524;28;20117;-68
2021/01/15 00:04:01;;;;;;;13.20;6.70;;;4.90;64.80;;;;;;4991196;28;20037;-68
2021/01/15 00:06:27;;;;;;;12.20;6.53;;;4.90;64.50;;;;;;5002322;28;20033;-68
2021/01/15 00:08:54;;;;;;;14.67;6.97;;;4.90;64.50;;;;;;5008324;28;20033;-68
2021/01/15 00:11:23;;;;;;;12.37;6.23;;;4.90;64.40;;;;;;5009207;28;20060;-69
2021/01/15 00:13:50;;;;;;;11.30;6.37;;;4.80;63.70;;;;;;5000848;28;20487;-68
2021/01/15 00:16:20;;;;;;;12.07;6.83;;;4.90;63.10;;;;;;5005038;28;20060;-69
2021/01/15 00:18:45;;;;;;;15.80;7.33;;;4.90;63.60;;;;;;4993251;28;20120;-68
2021/01/15 00:21:19;;;;;;;10.80;6.27;;;4.80;62.60;;;;;;4996321;28;20065;-68
2021/01/15 00:23:44;;;;;;;11.35;6.18;;;4.80;63.20;;;;;;5003993;28;20034;-68
2021/01/15 00:26:17;;;;;;;10.30;5.73;;;4.90;63.20;;;;;;5006381;28;20381;-68
2021/01/15 00:28:43;;;;;;;10.05;6.13;;;5.00;62.40;;;;;;4999591;28;20388;-68
2021/01/15 00:31:09;;;;;;;12.00;6.67;;;5.00;61.90;;;;;;4998676;28;20026;-68
2021/01/15 00:33:34;;;;;;;12.07;6.93;;;5.00;62.50;;;;;;4997509;28;20050;-69
2021/01/15 00:36:00;;;;;;;14.13;6.33;;;5.00;62.00;;;;;;5004622;28;20105;-68
2021/01/15 00:38:26;;;;;;;10.03;5.60;;;5.10;61.30;;;;;;5010447;28;20053;-68
2021/01/15 00:41:06;;;;;;;12.63;6.23;;;5.00;61.90;;;;;;5005508;28;20114;-68
2021/01/15 00:43:32;;;;;;;10.03;6.47;;;5.10;61.70;;;;;;5001346;28;20058;-69
2021/01/15 00:45:58;;;;;;;9.07;5.27;;;5.10;61.00;;;;;;5008870;28;20038;-69
2021/01/15 00:48:24;;;;;;;11.03;5.17;;;5.20;60.80;;;;;;4999630;28;20120;-69
2021/01/15 00:50:49;;;;;;;10.00;6.83;;;5.20;61.40;;;;;;5009503;28;20113;-68
2021/01/15 00:53:15;;;;;;;10.57;5.93;;;5.30;61.10;;;;;;5003721;28;20080;-69
2021/01/15 00:55:41;;;;;;;11.80;6.07;;;5.30;60.80;;;;;;5010007;28;20125;-68
2021/01/15 00:58:06;;;;;;;9.50;5.77;;;5.30;59.80;;;;;;5006821;28;20033;-68
2021/01/15 01:00:32;;;;;;;13.47;6.53;;;5.40;60.00;;;;;;4995934;28;20046;-69
2021/01/15 01:02:58;;;;;;;13.60;5.60;;;5.40;60.00;;;;;;5003624;28;20049;-68
2021/01/15 01:05:25;;;;;;;10.17;6.00;;;5.50;60.10;;;;;;5009772;28;20037;-68
2021/01/15 01:07:51;;;;;;;10.73;6.13;;;5.60;60.30;;;;;;5007543;28;20033;-68
2021/01/15 01:10:18;;;;;;;10.13;5.90;;;5.60;60.10;;;;;;5007905;28;20030;-68
2021/01/15 01:12:44;;;;;;;9.07;5.03;;;5.60;60.60;;;;;;5009075;28;20030;-69
2021/01/15 01:15:12;;;;;;;9.60;5.50;;;5.70;60.00;;;;;;5005250;28;20088;-68
2021/01/15 01:17:38;;;;;;;10.73;5.47;;;5.70;60.60;;;;;;5001601;28;20037;-68
2021/01/15 01:20:08;;;;;;;9.17;5.03;;;5.70;61.10;;;;;;5008714;28;20128;-68
2021/01/15 01:22:34;;;;;;;12.27;6.67;;;5.70;60.50;;;;;;5002801;28;20172;-69
2021/01/15 01:24:59;;;;;;;11.87;6.53;;;5.70;60.00;;;;;;5010262;28;20136;-68
2021/01/15 01:27:25;;;;;;;10.50;5.60;;;5.70;60.10;;;;;;5006075;28;20413;-68
2021/01/15 01:29:51;;;;;;;11.20;6.30;;;5.70;60.30;;;;;;4990856;28;20084;-68
2021/01/15 01:32:17;;;;;;;12.37;5.77;;;5.80;60.40;;;;;;5002210;28;20125;-69
2021/01/15 01:34:43;;;;;;;11.70;6.10;;;5.70;60.90;;;;;;5011291;28;20081;-68
2021/01/15 01:37:08;;;;;;;12.00;6.83;;;5.70;60.60;;;;;;5009191;28;20033;-68
2021/01/15 01:39:34;;;;;;;12.93;6.63;;;5.90;61.20;;;;;;5013506;28;20109;-68
2021/01/15 01:42:00;;;;;;;11.43;6.67;;;5.80;60.70;;;;;;5009855;28;20034;-68
2021/01/15 01:44:25;;;;;;;13.00;6.97;;;5.80;60.80;;;;;;5013283;28;20050;-68
2021/01/15 01:46:52;;;;;;;14.50;7.43;;;5.80;60.90;;;;;;5010924;28;20105;-68
2021/01/15 01:49:18;;;;;;;13.97;7.40;;;5.80;61.00;;;;;;5010196;28;20388;-68
2021/01/15 01:51:46;;;;;;;11.97;6.67;;;5.80;61.30;;;;;;5012063;28;20199;-68
2021/01/15 01:54:12;;;;;;;13.73;7.00;;;5.80;61.40;;;;;;5011417;28;20057;-69
2021/01/15 01:56:40;;;;;;;13.63;8.13;;;5.80;61.70;;;;;;5005285;28;20076;-70
2021/01/15 01:59:07;;;;;;;13.07;7.40;;;5.70;62.20;;;;;;5012096;28;20026;-68
2021/01/15 02:01:33;;;;;;;13.73;7.30;;;5.80;61.80;;;;;;5004490;28;20038;-68
2021/01/15 02:04:03;;;;;;;11.83;6.63;;;5.80;61.90;;;;;;5011973;28;20044;-68
2021/01/15 02:06:31;;;;;;;11.53;6.10;;;5.70;61.90;;;;;;4997199;28;20042;-68
2021/01/15 02:08:57;;;;;;;11.67;6.87;;;5.80;61.90;;;;;;5001286;28;20030;-68
2021/01/15 02:11:44;;;;;;;13.37;6.90;;;5.70;61.90;;;;;;5010753;28;20042;-68
2021/01/15 02:14:28;;;;;;;10.60;6.50;;;5.70;62.60;;;;;;4992373;28;20041;-68
2021/01/15 02:16:55;;;;;;;11.35;6.60;;;5.70;62.60;;;;;;4998812;28;20082;-68
2021/01/15 02:19:36;;;;;;;11.97;7.00;;;5.80;62.20;;;;;;4992263;28;20369;-69
2021/01/15 02:22:30;;;;;;;14.53;8.30;;;5.80;62.20;;;;;;5009870;28;20196;-69
2021/01/15 02:24:58;;;;;;;11.90;7.60;;;5.80;62.30;;;;;;5007527;28;20468;-70
2021/01/15 02:27:48;;;;;;;11.30;6.97;;;5.70;62.70;;;;;;5004728;28;20047;-69
2021/01/15 02:30:47;;;;;;;13.30;7.80;;;5.70;62.70;;;;;;4998804;28;20046;-69
2021/01/15 02:33:28;;;;;;;14.50;7.73;;;5.70;62.20;;;;;;4998724;28;20061;-69
2021/01/15 02:35:55;;;;;;;11.23;6.73;;;5.70;62.30;;;;;;4999150;28;20092;-69
2021/01/15 02:38:29;;;;;;;12.93;6.53;;;5.70;63.50;;;;;;4996717;28;20057;-69
2021/01/15 02:41:04;;;;;;;14.00;7.37;;;5.70;62.40;;;;;;5011059;28;20142;-69
2021/01/15 02:43:33;;;;;;;13.93;6.70;;;5.80;62.50;;;;;;5009324;28;20468;-68
2021/01/15 02:46:03;;;;;;;14.70;7.30;;;5.70;63.00;;;;;;4992473;28;20504;-69
2021/01/15 02:48:31;;;;;;;12.90;7.03;;;5.80;62.60;;;;;;4996670;28;20341;-69
2021/01/15 02:50:59;;;;;;;11.60;7.57;;;5.80;62.80;;;;;;5011898;28;20117;-68
2021/01/15 02:53:25;;;;;;;10.47;6.30;;;5.80;62.80;;;;;;4999898;28;20036;-69
2021/01/15 02:55:51;;;;;;;12.07;6.83;;;5.80;62.80;;;;;;5010399;28;20030;-68
2021/01/15 02:58:16;;;;;;;12.80;6.40;;;5.80;63.40;;;;;;4999126;28;20049;-69
2021/01/15 03:00:42;;;;;;;13.03;6.43;;;5.80;63.40;;;;;;5012270;28;20111;-68
2021/01/15 03:03:23;;;;;;;12.67;6.80;;;5.70;63.10;;;;;;5002738;28;20038;-69
2021/01/15 03:06:02;;;;;;;14.53;8.43;;;5.80;63.30;;;;;;4995759;28;20038;-69
2021/01/15 03:08:28;;;;;;;13.47;7.60;;;5.70;63.60;;;;;;5008546;28;20348;-68
2021/01/15 03:10:58;;;;;;;12.40;7.27;;;5.60;64.10;;;;;;5012062;28;20571;-69
2021/01/15 03:13:28;;;;;;;14.97;7.57;;;5.60;64.00;;;;;;5006954;28;20105;-69
2021/01/15 03:15:56;;;;;;;14.20;8.10;;;5.60;64.60;;;;;;5011699;28;20132;-69
2021/01/15 03:18:22;;;;;;;11.67;6.33;;;5.60;64.80;;;;;;4994598;28;20962;-69
2021/01/15 03:20:48;;;;;;;13.30;7.90;;;5.50;64.90;;;;;;5011557;28;20424;-69
2021/01/15 03:23:14;;;;;;;14.30;7.77;;;5.50;65.50;;;;;;5008750;28;20057;-69
2021/01/15 03:25:39;;;;;;;12.93;8.30;;;5.50;65.80;;;;;;5011832;28;20033;-69
2021/01/15 03:28:05;;;;;;;14.33;7.07;;;5.50;65.10;;;;;;5001936;28;20520;-69
2021/01/15 03:30:31;;;;;;;16.17;8.30;;;5.50;65.60;;;;;;5011022;28;20062;-68
2021/01/15 03:32:59;;;;;;;12.73;7.80;;;5.50;65.50;;;;;;5001646;28;20030;-69
2021/01/15 03:35:27;;;;;;;11.57;7.13;;;5.60;65.60;;;;;;5010754;28;20072;-69
2021/01/15 03:38:00;;;;;;;11.17;6.03;;;5.60;65.10;;;;;;5006996;28;20025;-69
2021/01/15 03:40:31;;;;;;;18.30;7.15;;;5.70;65.10;;;;;;5011305;28;20037;-69
2021/01/15 03:42:57;;;;;;;16.67;8.60;;;5.70;65.60;;;;;;5009834;28;20041;-68
2021/01/15 03:45:23;;;;;;;12.20;6.73;;;5.60;65.70;;;;;;4997924;28;20090;-69
2021/01/15 03:47:49;;;;;;;13.97;7.17;;;5.60;65.80;;;;;;5001198;28;20088;-70
2021/01/15 03:50:14;;;;;;;12.40;8.03;;;5.60;65.80;;;;;;5009828;28;20037;-69
2021/01/15 03:52:40;;;;;;;13.33;6.97;;;5.60;65.80;;;;;;5010143;28;20432;-68
2021/01/15 03:55:06;;;;;;;13.60;7.83;;;5.70;66.40;;;;;;5010462;28;20407;-69
2021/01/15 03:57:32;;;;;;;16.80;8.40;;;5.60;66.40;;;;;;5009584;28;20390;-69
2021/01/15 03:59:58;;;;;;;15.80;8.50;;;5.50;66.90;;;;;;5010385;28;20046;-69
2021/01/15 04:02:24;;;;;;;14.33;8.30;;;5.60;67.00;;;;;;5009883;28;20029;-69
2021/01/15 04:04:49;;;;;;;14.73;7.43;;;5.50;66.90;;;;;;5010025;28;20029;-69
2021/01/15 04:07:16;;;;;;;15.67;8.63;;;5.70;66.40;;;;;;5010233;28;20364;-69
2021/01/15 04:09:42;;;;;;;15.83;8.53;;;5.70;66.30;;;;;;5001154;28;20039;-69
2021/01/15 04:12:12;;;;;;;16.60;8.23;;;5.70;66.20;;;;;;4993615;28;20369;-69
2021/01/15 04:14:38;;;;;;;16.30;8.67;;;5.70;66.20;;;;;;4986581;28;20329;-69
2021/01/15 04:17:04;;;;;;;15.03;8.10;;;5.70;66.80;;;;;;5001325;28;20073;-69
2021/01/15 04:19:30;;;;;;;13.83;8.27;;;5.60;67.40;;;;;;5005161;28;20398;-69
2021/01/15 04:21:55;;;;;;;14.50;7.70;;;5.50;67.50;;;;;;5007523;28;20041;-69
2021/01/15 04:24:22;;;;;;;16.83;8.20;;;5.50;67.60;;;;;;5007671;28;20480;-69
2021/01/15 04:26:58;;;;;;;15.23;8.07;;;5.60;67.60;;;;;;5002987;28;20038;-69
2021/01/15 04:29:27;;;;;;;16.20;8.73;;;5.50;67.80;;;;;;5008752;28;20037;-69
2021/01/15 04:31:53;;;;;;;14.67;8.37;;;5.50;67.80;;;;;;5010271;28;20029;-71
2021/01/15 04:34:18;;;;;;;16.53;9.07;;;5.60;67.20;;;;;;5006783;28;20026;-69
2021/01/15 04:36:45;;;;;;;14.70;8.27;;;5.70;67.80;;;;;;4995310;28;20080;-69
2021/01/15 04:39:10;;;;;;;17.23;8.83;;;5.60;67.60;;;;;;5002932;28;20052;-68
2021/01/15 04:41:36;;;;;;;14.87;7.43;;;5.60;66.90;;;;;;5010721;28;20038;-69
2021/01/15 04:44:03;;;;;;;13.70;8.50;;;5.60;67.50;;;;;;5009427;28;20065;-69
2021/01/15 04:46:29;;;;;;;14.77;8.43;;;5.60;67.40;;;;;;5005775;28;20470;-69
2021/01/15 04:48:56;;;;;;;17.00;9.33;;;5.70;66.80;;;;;;5008646;28;20116;-71
2021/01/15 04:51:24;;;;;;;20.30;10.37;;;5.60;67.30;;;;;;5005874;28;20126;-69
2021/01/15 04:53:59;;;;;;;16.13;8.63;;;5.50;67.50;;;;;;4990906;28;20054;-69
2021/01/15 04:56:50;;;;;;;16.70;8.50;;;5.50;67.80;;;;;;4999250;28;20340;-69
2021/01/15 04:59:17;;;;;;;15.50;8.60;;;5.40;67.90;;;;;;4995947;28;20128;-70
2021/01/15 05:01:44;;;;;;;13.53;7.73;;;5.50;67.40;;;;;;5003067;28;20043;-69
2021/01/15 05:04:18;;;;;;;14.20;8.27;;;5.50;67.90;;;;;;4989868;28;20076;-69
2021/01/15 05:06:50;;;;;;;13.93;6.85;;;5.40;68.10;;;;;;5013725;28;20161;-68
2021/01/15 05:09:18;;;;;;;16.10;8.53;;;5.40;68.20;;;;;;5014133;28;20038;-69
2021/01/15 05:11:45;;;;;;;16.20;8.73;;;5.40;67.70;;;;;;5013713;28;20038;-69
2021/01/15 05:14:16;;;;;;;15.53;9.53;;;5.40;67.60;;;;;;5007276;28;20061;-69
2021/01/15 05:16:44;;;;;;;17.10;8.97;;;5.50;67.60;;;;;;5012593;28;20042;-69
2021/01/15 05:19:12;;;;;;;15.13;8.50;;;5.50;67.60;;;;;;5010416;28;20371;-69
2021/01/15 05:21:38;;;;;;;15.20;8.43;;;5.50;68.00;;;;;;5014078;28;20038;-68
2021/01/15 05:24:08;;;;;;;15.17;8.60;;;5.60;67.90;;;;;;5012809;28;20145;-69
2021/01/15 05:26:36;;;;;;;16.93;8.40;;;5.60;67.20;;;;;;5014140;28;20022;-69
2021/01/15 05:29:03;;;;;;;14.23;8.40;;;5.60;67.70;;;;;;5013053;28;20026;-69
2021/01/15 05:31:55;;;;;;;14.80;8.10;;;5.60;67.10;;;;;;5013355;28;20129;-69
2021/01/15 05:34:24;;;;;;;16.37;8.43;;;5.60;67.20;;;;;;5012001;28;20025;-69
2021/01/15 05:36:50;;;;;;;15.73;9.10;;;5.60;67.70;;;;;;5013660;28;20022;-69
2021/01/15 05:39:24;;;;;;;15.30;8.23;;;5.60;67.80;;;;;;5012587;28;20038;-69
2021/01/15 05:42:01;;;;;;;15.67;8.70;;;5.60;67.30;;;;;;5010324;28;20049;-69
2021/01/15 05:44:30;;;;;;;16.63;9.80;;;5.70;67.30;;;;;;5010103;28;20026;-69
2021/01/15 05:46:56;;;;;;;18.73;9.90;;;5.70;67.30;;;;;;5008141;28;20033;-69
2021/01/15 05:49:22;;;;;;;16.73;9.53;;;5.60;67.40;;;;;;4994887;28;20085;-69
2021/01/15 05:51:48;;;;;;;15.43;8.93;;;5.60;67.90;;;;;;5000703;28;20045;-69
2021/01/15 05:54:29;;;;;;;16.07;8.83;;;5.60;67.60;;;;;;5010819;28;20113;-69
2021/01/15 05:56:56;;;;;;;18.37;10.23;;;5.60;68.20;;;;;;4994014;28;20104;-68
2021/01/15 05:59:21;;;;;;;17.17;9.07;;;5.60;68.10;;;;;;4992602;28;20353;-69
2021/01/15 06:01:48;;;;;;;16.63;10.63;;;5.60;67.80;;;;;;5000949;28;20038;-68
2021/01/15 06:04:19;;;;;;;17.37;10.33;;;5.70;67.80;;;;;;5006113;28;20136;-69
2021/01/15 06:06:47;;;;;;;17.83;9.33;;;5.70;67.70;;;;;;5000216;28;20035;-69
2021/01/15 06:09:20;;;;;;;17.33;9.47;;;5.80;67.80;;;;;;4993116;28;20037;-68
2021/01/15 06:11:46;;;;;;;17.67;10.57;;;5.80;67.70;;;;;;5009174;28;20627;-68
2021/01/15 06:14:27;;;;;;;18.93;9.50;;;5.80;67.60;;;;;;5010386;28;20060;-68
2021/01/15 06:17:06;;;;;;;16.67;9.43;;;5.80;68.10;;;;;;5012218;28;20471;-69
2021/01/15 06:19:57;;;;;;;20.03;11.83;;;5.80;67.50;;;;;;5009346;28;20025;-69
2021/01/15 06:22:28;;;;;;;18.90;10.93;;;5.70;68.10;;;;;;5002090;28;20105;-68
2021/01/15 06:25:23;;;;;;;19.40;10.80;;;5.80;68.10;;;;;;5010221;28;20041;-70
2021/01/15 06:27:55;;;;;;;19.13;9.83;;;5.70;67.90;;;;;;4994203;28;20157;-68
2021/01/15 06:30:26;;;;;;;18.80;9.10;;;5.70;67.90;;;;;;5009360;28;20053;-68
2021/01/15 06:32:53;;;;;;;19.47;10.43;;;5.70;68.50;;;;;;5003955;28;20033;-69
2021/01/15 06:35:36;;;;;;;17.20;10.77;;;5.80;68.50;;;;;;4990153;28;20035;-69
2021/01/15 06:38:06;;;;;;;19.60;10.60;;;5.70;68.00;;;;;;5011058;28;20041;-70
2021/01/15 06:40:40;;;;;;;17.83;10.40;;;5.70;68.10;;;;;;5011665;28;20096;-70
2021/01/15 06:43:07;;;;;;;18.95;11.82;;;5.70;68.20;;;;;;4994859;28;20094;-71
2021/01/15 06:45:45;;;;;;;18.57;9.53;;;5.70;68.80;;;;;;5010428;28;20099;-70
2021/01/15 06:48:17;;;;;;;16.27;9.27;;;5.60;68.90;;;;;;4992455;28;20607;-70
2021/01/15 06:50:44;;;;;;;18.63;10.47;;;5.70;68.50;;;;;;5003454;28;20044;-70
2021/01/15 06:53:24;;;;;;;16.70;9.53;;;5.70;68.40;;;;;;5005068;28;20033;-70
2021/01/15 06:55:51;;;;;;;20.97;11.33;;;5.70;68.30;;;;;;4991501;28;20041;-70
2021/01/15 06:58:18;;;;;;;18.93;11.40;;;5.70;68.50;;;;;;5009022;28;20548;-70
2021/01/15 07:01:09;;;;;;;22.03;11.37;;;5.60;68.70;;;;;;5009888;28;20045;-70
2021/01/15 07:03:47;;;;;;;23.33;12.50;;;5.60;68.70;;;;;;5010275;28;20042;-68
2021/01/15 07:06:27;;;;;;;18.60;10.90;;;5.60;69.20;;;;;;5000761;28;20026;-68
2021/01/15 07:08:55;;;;;;;21.67;11.30;;;5.60;68.60;;;;;;5010717;28;20038;-68
2021/01/15 07:11:22;;;;;;;21.63;10.60;;;5.70;68.60;;;;;;5010532;28;20106;-69
2021/01/15 07:13:56;;;;;;;21.73;12.13;;;5.60;69.10;;;;;;5010753;28;20030;-68
2021/01/15 07:16:32;;;;;;;21.70;11.97;;;5.60;69.20;;;;;;5004542;28;20022;-69
2021/01/15 07:19:24;;;;;;;22.77;12.77;;;5.60;69.30;;;;;;5010504;28;20030;-68
2021/01/15 07:22:01;;;;;;;21.83;12.10;;;5.60;69.50;;;;;;5009572;28;20041;-68
2021/01/15 07:24:38;;;;;;;22.77;13.80;;;5.60;69.50;;;;;;5008311;28;21395;-67
2021/01/15 07:27:06;;;;;;;19.83;11.40;;;5.60;69.40;;;;;;5009343;28;20444;-67
2021/01/15 07:29:35;;;;;;;20.23;10.90;;;5.70;68.80;;;;;;5007457;28;20104;-68
2021/01/15 07:32:24;;;;;;;22.93;12.17;;;5.70;69.30;;;;;;4997000;28;20101;-68
2021/01/15 07:35:00;;;;;;;22.67;13.03;;;5.80;69.30;;;;;;4986970;28;20092;-68
2021/01/15 07:37:31;;;;;;;26.07;13.43;;;5.80;68.80;;;;;;5003912;28;20026;-68
2021/01/15 07:40:19;;;;;;;21.37;12.50;;;5.80;69.00;;;;;;5008432;28;20062;-68
2021/01/15 07:42:52;;;;;;;21.13;12.80;;;5.70;69.50;;;;;;5011464;28;20069;-67
2021/01/15 07:45:24;;;;;;;22.85;11.57;;;5.80;69.70;;;;;;5007240;28;20026;-68
2021/01/15 07:48:13;;;;;;;23.07;14.10;;;5.90;69.00;;;;;;5010026;28;20026;-67
2021/01/15 07:50:43;;;;;;;22.03;11.43;;;5.80;69.40;;;;;;5001569;28;20046;-67
2021/01/15 07:53:14;;;;;;;24.33;13.00;;;5.90;68.80;;;;;;4994001;28;20091;-67
2021/01/15 07:55:55;;;;;;;17.87;10.07;;;5.90;68.90;;;;;;4996079;28;20029;-67
2021/01/15 07:58:39;;;;;;;22.43;12.97;;;5.90;68.90;;;;;;5000463;28;20089;-68
2021/01/15 08:01:06;;;;;;;22.73;11.88;;;5.80;69.50;;;;;;5001349;28;20072;-68
2021/01/15 08:03:43;;;;;;;22.40;12.80;;;5.90;68.90;;;;;;4983137;28;20559;-69
2021/01/15 08:06:10;;;;;;;20.90;11.63;;;6.00;68.80;;;;;;4997870;28;20029;-69
2021/01/15 08:08:41;;;;;;;22.63;12.47;;;6.00;68.80;;;;;;5007281;28;20052;-69
2021/01/15 08:11:14;;;;;;;22.53;11.67;;;6.00;68.70;;;;;;5008292;28;20042;-69
2021/01/15 08:13:40;;;;;;;26.25;13.75;;;6.00;68.70;;;;;;5006229;28;20036;-69
2021/01/15 08:16:06;;;;;;;22.57;11.77;;;5.90;68.90;;;;;;4985882;28;20121;-69
2021/01/15 08:18:33;;;;;;;24.07;12.50;;;6.10;69.60;;;;;;5005541;28;20048;-68
2021/01/15 08:20:59;;;;;;;19.07;11.87;;;5.90;69.50;;;;;;5007107;28;20032;-69
2021/01/15 08:23:27;;;;;;;23.27;12.23;;;6.00;69.00;;;;;;5007540;28;20107;-69
2021/01/15 08:25:54;;;;;;;22.27;12.50;;;6.00;69.10;;;;;;5004237;28;20053;-69
2021/01/15 08:28:20;;;;;;;18.73;11.13;;;6.10;69.00;;;;;;4996307;28;20030;-69
2021/01/15 08:30:59;;;;;;;18.13;10.63;;;6.10;68.80;;;;;;5004304;28;20428;-68
2021/01/15 08:33:25;;;;;;;21.47;11.90;;;6.20;68.70;;;;;;5002733;28;20061;-69
2021/01/15 08:36:02;;;;;;;23.43;13.30;;;6.20;68.50;;;;;;5007003;28;20502;-69
2021/01/15 08:38:36;;;;;;;19.27;11.20;;;6.20;68.50;;;;;;5008986;28;20060;-69
2021/01/15 08:41:15;;;;;;;19.37;11.37;;;6.20;68.50;;;;;;5006099;28;20045;-69
2021/01/15 08:43:41;;;;;;;19.47;10.50;;;6.20;68.50;;;;;;5006204;28;20437;-69
2021/01/15 08:46:14;;;;;;;23.53;11.53;;;6.30;68.50;;;;;;5009793;28;20380;-69
2021/01/15 08:48:40;;;;;;;20.90;10.65;;;6.30;68.50;;;;;;5007353;28;20045;-69
2021/01/15 08:51:08;;;;;;;19.93;11.13;;;6.30;68.30;;;;;;5007985;28;20541;-70
2021/01/15 08:56:21;;;;;;;24.27;11.60;;;6.20;68.40;;;;;;5008117;28;20439;-69
2021/01/15 08:58:48;;;;;;;24.27;12.33;;;6.10;68.80;;;;;;5006394;28;20183;-69
2021/01/15 09:01:30;;;;;;;21.00;12.03;;;5.90;69.10;;;;;;5007065;28;20042;-69
2021/01/15 09:04:00;;;;;;;20.80;10.87;;;5.80;69.50;;;;;;5006678;28;20080;-69
2021/01/15 09:06:28;;;;;;;17.37;9.97;;;5.90;69.70;;;;;;5009004;28;20034;-69
2021/01/15 09:08:56;;;;;;;22.97;11.90;;;5.90;69.80;;;;;;5008013;28;20108;-69
2021/01/15 09:11:30;;;;;;;20.30;12.57;;;5.80;69.80;;;;;;5004522;28;20034;-69
2021/01/15 09:13:57;;;;;;;23.13;12.47;;;5.80;70.40;;;;;;4992275;28;20177;-69
2021/01/15 09:16:24;;;;;;;20.60;10.50;;;5.70;70.20;;;;;;4997163;28;20053;-69
2021/01/15 09:18:52;;;;;;;19.20;10.83;;;5.70;70.40;;;;;;5002698;28;20104;-68
2021/01/15 09:21:17;;;;;;;19.73;9.90;;;5.70;70.40;;;;;;5008882;28;20391;-68
2021/01/15 09:23:43;;;;;;;16.93;9.73;;;5.80;70.10;;;;;;5009529;28;20128;-68
2021/01/15 09:26:09;;;;;;;21.03;11.57;;;6.00;69.80;;;;;;5007400;28;20117;-68
2021/01/15 09:28:35;;;;;;;22.53;12.30;;;6.00;69.50;;;;;;4981649;28;20037;-68
2021/01/15 09:31:00;;;;;;;19.60;10.20;;;6.00;69.50;;;;;;5014344;28;20054;-69
2021/01/15 09:33:26;;;;;;;19.37;10.30;;;5.90;69.60;;;;;;5015234;28;20447;-69
2021/01/15 09:35:52;;;;;;;21.57;12.20;;;5.90;69.90;;;;;;5017207;28;20048;-69
2021/01/15 09:38:18;;;;;;;20.33;10.83;;;5.90;70.10;;;;;;5012441;28;20117;-71
2021/01/15 09:40:44;;;;;;;21.40;11.73;;;5.80;70.20;;;;;;5012871;28;20125;-69
2021/01/15 09:43:09;;;;;;;17.10;9.03;;;5.80;70.20;;;;;;4989825;28;20037;-69
2021/01/15 09:45:35;;;;;;;20.13;11.27;;;5.80;70.20;;;;;;5008751;28;20026;-71
2021/01/15 09:48:06;;;;;;;17.53;9.67;;;5.80;70.10;;;;;;5009636;28;20040;-70
2021/01/15 09:50:32;;;;;;;17.90;10.60;;;5.70;70.30;;;;;;5030821;28;20424;-69
2021/01/15 09:52:58;;;;;;;17.73;10.33;;;5.70;70.40;;;;;;4997816;28;20034;-69
2021/01/15 09:55:23;;;;;;;17.77;10.37;;;5.70;70.50;;;;;;5018830;28;20489;-69
2021/01/15 09:57:49;;;;;;;17.73;9.07;;;5.60;70.40;;;;;;5011279;28;20038;-68
2021/01/15 10:00:15;;;;;;;17.70;9.70;;;5.60;70.40;;;;;;5002935;28;20384;-69
2021/01/15 10:02:40;;;;;;;18.83;10.30;;;5.50;70.40;;;;;;5009742;28;20062;-69
2021/01/15 10:05:07;;;;;;;22.40;10.30;;;5.50;70.60;;;;;;5010832;28;20068;-69
2021/01/15 10:07:32;;;;;;;17.23;8.87;;;5.50;71.10;;;;;;4997034;28;20141;-69
2021/01/15 10:09:58;;;;;;;18.00;10.37;;;5.60;70.30;;;;;;4988294;28;20543;-69
2021/01/15 10:12:23;;;;;;;19.73;10.33;;;5.60;70.80;;;;;;5006513;28;20044;-69
2021/01/15 10:14:49;;;;;;;17.10;9.73;;;5.80;69.50;;;;;;5012289;28;20053;-69
2021/01/15 10:17:15;;;;;;;15.57;9.73;;;5.70;70.00;;;;;;4993528;28;20040;-69
2021/01/15 10:19:40;;;;;;;18.83;10.90;;;5.70;69.80;;;;;;5007487;28;20037;-69
2021/01/15 10:22:06;;;;;;;17.37;9.83;;;5.70;69.80;;;;;;5009847;28;20046;-69
2021/01/15 10:24:31;;;;;;;17.80;9.07;;;5.80;69.60;;;;;;5011802;28;20188;-69
2021/01/15 10:26:57;;;;;;;18.30;9.83;;;5.80;70.10;;;;;;5007394;28;20032;-69
2021/01/15 10:29:23;;;;;;;14.83;8.53;;;5.90;69.80;;;;;;4994077;28;20113;-70
2021/01/15 10:31:57;;;;;;;15.33;8.40;;;6.00;69.50;;;;;;5010325;28;20034;-69
2021/01/15 10:34:23;;;;;;;18.63;9.13;;;6.20;68.00;;;;;;5011529;28;20029;-69
2021/01/15 10:36:50;;;;;;;16.67;8.80;;;6.20;68.40;;;;;;5010070;28;20026;-69
2021/01/15 10:39:16;;;;;;;16.50;9.53;;;6.10;66.50;;;;;;5010953;28;20045;-69
2021/01/15 10:41:44;;;;;;;16.87;8.40;;;6.00;66.30;;;;;;5008895;28;20137;-69
2021/01/15 10:44:12;;;;;;;16.00;9.60;;;6.00;66.50;;;;;;5009415;28;20108;-69
2021/01/15 10:46:44;;;;;;;16.23;9.13;;;5.90;67.00;;;;;;5009754;28;20034;-69
2021/01/15 10:49:11;;;;;;;16.33;9.10;;;5.90;66.70;;;;;;5003226;28;20026;-69
2021/01/15 10:51:47;;;;;;;16.43;9.23;;;5.90;66.30;;;;;;5009259;28;20030;-71
2021/01/15 10:54:13;;;;;;;15.60;9.00;;;5.80;66.90;;;;;;5011411;28;20044;-69
2021/01/15 10:56:41;;;;;;;16.00;9.53;;;5.80;66.50;;;;;;5011131;28;20460;-69
2021/01/15 10:59:07;;;;;;;18.50;9.90;;;5.80;67.20;;;;;;5002410;28;20619;-69
2021/01/15 11:01:40;;;;;;;16.20;9.30;;;5.80;67.00;;;;;;5009938;28;20034;-70
2021/01/15 11:04:07;;;;;;;17.90;9.27;;;5.80;66.80;;;;;;5006647;28;20040;-69
2021/01/15 11:06:34;;;;;;;15.40;8.10;;;5.80;66.50;;;;;;5003073;28;20495;-69
2021/01/15 11:09:00;;;;;;;18.67;10.00;;;5.80;66.40;;;;;;5004801;28;20113;-69
2021/01/15 11:11:26;;;;;;;17.80;9.77;;;5.80;66.20;;;;;;4992766;28;20113;-69
2021/01/15 11:13:52;;;;;;;17.43;9.53;;;5.80;66.70;;;;;;5010326;28;20555;-70
2021/01/15 11:16:17;;;;;;;18.27;9.47;;;5.80;66.10;;;;;;5009823;28;20036;-69
2021/01/15 11:18:43;;;;;;;15.63;8.40;;;5.70;66.70;;;;;;5007686;28;20034;-69
2021/01/15 11:21:09;;;;;;;16.63;9.40;;;5.70;66.70;;;;;;4995318;28;20144;-69
2021/01/15 11:23:36;;;;;;;16.73;9.23;;;5.80;66.50;;;;;;4990926;28;20068;-70
2021/01/15 11:26:02;;;;;;;17.63;10.73;;;5.80;66.20;;;;;;5013238;28;20037;-69
2021/01/15 11:28:28;;;;;;;15.73;9.73;;;5.80;66.30;;;;;;5018756;28;20033;-69
2021/01/15 11:30:54;;;;;;;16.90;9.73;;;5.70;66.80;;;;;;5016742;28;20054;-69
2021/01/15 11:33:19;;;;;;;18.53;9.83;;;5.80;66.80;;;;;;5021408;28;20040;-70
2021/01/15 11:35:45;;;;;;;17.37;9.40;;;5.70;66.50;;;;;;5019614;28;20029;-69
2021/01/15 11:38:11;;;;;;;16.90;9.87;;;5.70;67.20;;;;;;5014877;28;20483;-70
2021/01/15 11:40:37;;;;;;;15.33;8.90;;;5.80;66.40;;;;;;5016948;28;20041;-70
2021/01/15 11:43:02;;;;;;;19.37;9.50;;;5.70;66.90;;;;;;5026226;28;20045;-70
2021/01/15 11:45:29;;;;;;;17.67;9.73;;;5.70;66.20;;;;;;5017460;28;20037;-69
2021/01/15 11:47:55;;;;;;;19.20;10.47;;;5.70;66.40;;;;;;5018856;28;20026;-69
2021/01/15 11:50:22;;;;;;;16.33;9.93;;;5.70;67.00;;;;;;5012569;28;20032;-70
2021/01/15 11:52:52;;;;;;;15.63;8.87;;;5.60;66.80;;;;;;5009652;28;20026;-70
2021/01/15 11:55:18;;;;;;;18.63;10.47;;;5.60;67.10;;;;;;5014333;28;20026;-69
2021/01/15 11:57:44;;;;;;;16.87;9.27;;;5.60;67.70;;;;;;4997205;28;20026;-68
2021/01/15 12:00:11;;;;;;;16.73;9.40;;;5.60;67.70;;;;;;5007766;28;20034;-70
2021/01/15 12:02:36;;;;;;;17.80;9.80;;;5.60;67.90;;;;;;5015888;28;20041;-70
2021/01/15 12:05:02;;;;;;;17.07;9.50;;;5.50;68.10;;;;;;4994134;28;20522;-69
2021/01/15 12:07:30;;;;;;;20.33;12.13;;;5.50;68.10;;;;;;5015527;28;20061;-70
2021/01/15 12:09:56;;;;;;;19.07;10.80;;;5.50;68.70;;;;;;5013822;28;20034;-71
2021/01/15 12:12:22;;;;;;;18.67;10.53;;;5.60;68.20;;;;;;5013989;28;20025;-69
2021/01/15 12:14:47;;;;;;;15.47;9.83;;;5.50;68.30;;;;;;5008985;28;20130;-71
2021/01/15 12:17:13;;;;;;;20.43;10.80;;;5.50;68.80;;;;;;5011203;28;20037;-69
2021/01/15 12:19:38;;;;;;;17.53;9.03;;;5.50;68.90;;;;;;5019317;28;20439;-69
2021/01/15 12:22:04;;;;;;;19.47;11.13;;;5.50;68.50;;;;;;5013521;28;20053;-70
2021/01/15 12:24:30;;;;;;;20.73;11.00;;;5.50;68.60;;;;;;5008335;28;20034;-71
2021/01/15 12:26:59;;;;;;;21.03;11.80;;;5.50;68.50;;;;;;5008753;28;20030;-69
2021/01/15 12:29:25;;;;;;;21.77;11.97;;;5.50;68.80;;;;;;5007858;28;20049;-70
2021/01/15 12:31:57;;;;;;;19.93;11.30;;;5.50;69.00;;;;;;5008917;28;20434;-70
2021/01/15 12:34:23;;;;;;;19.57;10.80;;;5.60;68.60;;;;;;5018257;28;20038;-69
2021/01/15 12:36:49;;;;;;;19.40;11.57;;;5.50;68.70;;;;;;5014504;28;20433;-70
2021/01/15 12:39:14;;;;;;;20.80;12.00;;;5.60;69.30;;;;;;5012220;28;20447;-69
2021/01/15 12:41:40;;;;;;;21.60;11.97;;;5.50;69.30;;;;;;4988002;28;20095;-69
2021/01/15 12:44:06;;;;;;;20.10;11.40;;;5.50;68.90;;;;;;5014081;28;20033;-71
2021/01/15 12:46:31;;;;;;;20.07;13.10;;;5.50;69.20;;;;;;5015377;28;20042;-70
2021/01/15 12:48:57;;;;;;;20.70;12.77;;;5.50;69.30;;;;;;5006498;28;20099;-70
2021/01/15 12:51:22;;;;;;;20.73;13.13;;;5.50;69.50;;;;;;5008964;28;20084;-70
2021/01/15 12:53:48;;;;;;;21.13;12.63;;;5.50;69.70;;;;;;5010344;28;20071;-71
2021/01/15 12:56:17;;;;;;;20.83;12.30;;;5.50;69.70;;;;;;5008836;28;20037;-71